sensor_id;sensor_type;location;lat;lon;timestamp;temperature;humidity
33645;DHT22;19986;48.190;16.366;2023-12-04T00:02:05;1.70;99.90
33645;DHT22;19986;48.190;16.366;2023-12-04T00:04:31;1.60;99.90
33645;DHT22;19986;48.190;16.366;2023-12-04T00:06:57;1.60;99.90
33645;DHT22;19986;48.190;16.366;2023-12-04T00:09:23;1.60;99.90
33645;DHT22;19986;48.190;16.366;2023-12-04T00:11:50;1.60;99.90
33645;DHT22;19986;48.190;16.366;2023-12-04T00:14:16;1.60;99.90
33645;DHT22;19986;48.190;16.366;2023-12-04T00:16:42;1.60;99.90
33645;DHT22;19986;48.190;16.366;2023-12-04T00:19:09;1.60;99.90
33645;DHT22;19986;48.190;16.366;2023-12-04T00:21:35;1.60;99.90
33645;DHT22;19986;48.190;16.366;2023-12-04T00:24:02;1.60;99.90
33645;DHT22;19986;48.190;16.366;2023-12-04T00:26:28;1.60;99.90
33645;DHT22;19986;48.190;16.366;2023-12-04T00:28:54;1.60;99.90
33645;DHT22;19986;48.190;16.366;2023-12-04T00:31:20;1.50;99.90
33645;DHT22;19986;48.190;16.366;2023-12-04T00:33:46;1.60;99.90
33645;DHT22;19986;48.190;16.366;2023-12-04T00:36:14;1.50;99.90
33645;DHT22;19986;48.190;16.366;2023-12-04T00:38:40;1.40;99.90
33645;DHT22;19986;48.190;16.366;2023-12-04T00:41:06;1.40;99.90
33645;DHT22;19986;48.190;16.366;2023-12-04T00:43:32;1.30;99.90
33645;DHT22;19986;48.190;16.366;2023-12-04T00:45:58;1.30;99.90
33645;DHT22;19986;48.190;16.366;2023-12-04T00:48:28;1.20;99.90
33645;DHT22;19986;48.190;16.366;2023-12-04T00:50:54;1.30;99.90
33645;DHT22;19986;48.190;16.366;2023-12-04T00:53:21;1.20;99.90
33645;DHT22;19986;48.190;16.366;2023-12-04T00:55:49;1.20;99.90
33645;DHT22;19986;48.190;16.366;2023-12-04T00:58:15;1.10;99.90
33645;DHT22;19986;48.190;16.366;2023-12-04T01:00:42;1.10;99.90
33645;DHT22;19986;48.190;16.366;2023-12-04T01:03:10;1.10;99.90
33645;DHT22;19986;48.190;16.366;2023-12-04T01:05:36;1.00;99.90
33645;DHT22;19986;48.190;16.366;2023-12-04T01:08:02;1.00;99.90
33645;DHT22;19986;48.190;16.366;2023-12-04T01:10:28;1.00;99.90
33645;DHT22;19986;48.190;16.366;2023-12-04T01:12:54;1.00;99.90
33645;DHT22;19986;48.190;16.366;2023-12-04T01:15:20;1.00;99.90
33645;DHT22;19986;48.190;16.366;2023-12-04T01:17:47;1.00;99.90
33645;DHT22;19986;48.190;16.366;2023-12-04T01:20:13;0.90;99.90
33645;DHT22;19986;48.190;16.366;2023-12-04T01:22:39;0.90;99.90
33645;DHT22;19986;48.190;16.366;2023-12-04T01:25:05;0.90;99.90
33645;DHT22;19986;48.190;16.366;2023-12-04T01:27:31;0.80;99.90
33645;DHT22;19986;48.190;16.366;2023-12-04T01:29:57;0.80;99.90
33645;DHT22;19986;48.190;16.366;2023-12-04T01:32:23;0.80;99.90
33645;DHT22;19986;48.190;16.366;2023-12-04T01:34:50;0.80;99.90
33645;DHT22;19986;48.190;16.366;2023-12-04T01:37:21;0.80;99.90
33645;DHT22;19986;48.190;16.366;2023-12-04T01:39:47;0.90;99.90
33645;DHT22;19986;48.190;16.366;2023-12-04T01:42:14;0.90;99.90
33645;DHT22;19986;48.190;16.366;2023-12-04T01:44:40;0.80;99.90
33645;DHT22;19986;48.190;16.366;2023-12-04T01:47:07;0.80;99.90
33645;DHT22;19986;48.190;16.366;2023-12-04T01:49:34;0.80;99.90
33645;DHT22;19986;48.190;16.366;2023-12-04T01:52:00;0.80;99.90
33645;DHT22;19986;48.190;16.366;2023-12-04T01:54:26;0.80;99.90
33645;DHT22;19986;48.190;16.366;2023-12-04T01:56:53;0.90;99.90
33645;DHT22;19986;48.190;16.366;2023-12-04T01:59:21;0.80;99.90
33645;DHT22;19986;48.190;16.366;2023-12-04T02:01:48;0.80;99.90
33645;DHT22;19986;48.190;16.366;2023-12-04T02:04:15;0.80;99.90
33645;DHT22;19986;48.190;16.366;2023-12-04T02:06:41;0.70;99.90
33645;DHT22;19986;48.190;16.366;2023-12-04T02:09:09;0.70;99.90
33645;DHT22;19986;48.190;16.366;2023-12-04T02:11:38;0.60;99.90
33645;DHT22;19986;48.190;16.366;2023-12-04T02:14:05;0.60;99.90
33645;DHT22;19986;48.190;16.366;2023-12-04T02:16:38;0.50;99.90
33645;DHT22;19986;48.190;16.366;2023-12-04T02:19:07;0.50;99.90
33645;DHT22;19986;48.190;16.366;2023-12-04T02:21:34;0.50;99.90
33645;DHT22;19986;48.190;16.366;2023-12-04T02:24:01;0.50;99.90
33645;DHT22;19986;48.190;16.366;2023-12-04T02:26:36;0.50;99.90
33645;DHT22;19986;48.190;16.366;2023-12-04T02:29:08;0.50;99.90
33645;DHT22;19986;48.190;16.366;2023-12-04T02:31:39;0.50;99.90
33645;DHT22;19986;48.190;16.366;2023-12-04T02:34:06;0.60;99.90
33645;DHT22;19986;48.190;16.366;2023-12-04T02:36:34;0.60;99.90
33645;DHT22;19986;48.190;16.366;2023-12-04T02:39:01;0.60;99.90
33645;DHT22;19986;48.190;16.366;2023-12-04T02:41:27;0.60;99.90
33645;DHT22;19986;48.190;16.366;2023-12-04T02:43:53;0.60;99.90
33645;DHT22;19986;48.190;16.366;2023-12-04T02:46:19;0.60;99.90
33645;DHT22;19986;48.190;16.366;2023-12-04T02:48:45;0.60;99.90
33645;DHT22;19986;48.190;16.366;2023-12-04T02:51:11;0.60;99.90
33645;DHT22;19986;48.190;16.366;2023-12-04T02:53:36;0.70;99.90
33645;DHT22;19986;48.190;16.366;2023-12-04T02:56:02;0.60;99.90
33645;DHT22;19986;48.190;16.366;2023-12-04T02:58:28;0.60;99.90
33645;DHT22;19986;48.190;16.366;2023-12-04T03:00:54;0.60;99.90
33645;DHT22;19986;48.190;16.366;2023-12-04T03:03:20;0.60;99.90
33645;DHT22;19986;48.190;16.366;2023-12-04T03:05:46;0.60;99.90
33645;DHT22;19986;48.190;16.366;2023-12-04T03:08:12;0.50;99.90
33645;DHT22;19986;48.190;16.366;2023-12-04T03:10:38;0.50;99.90
33645;DHT22;19986;48.190;16.366;2023-12-04T03:13:04;0.40;99.90
33645;DHT22;19986;48.190;16.366;2023-12-04T03:15:29;0.40;99.90
33645;DHT22;19986;48.190;16.366;2023-12-04T03:17:57;0.30;99.90
33645;DHT22;19986;48.190;16.366;2023-12-04T03:20:24;0.20;99.90
33645;DHT22;19986;48.190;16.366;2023-12-04T03:22:50;0.20;99.90
33645;DHT22;19986;48.190;16.366;2023-12-04T03:25:15;0.20;99.90
33645;DHT22;19986;48.190;16.366;2023-12-04T03:27:41;0.20;99.90
33645;DHT22;19986;48.190;16.366;2023-12-04T03:30:08;0.20;99.90
33645;DHT22;19986;48.190;16.366;2023-12-04T03:32:34;0.20;99.90
33645;DHT22;19986;48.190;16.366;2023-12-04T03:35:00;0.20;99.90
33645;DHT22;19986;48.190;16.366;2023-12-04T03:37:26;0.20;99.90
33645;DHT22;19986;48.190;16.366;2023-12-04T03:39:52;0.10;99.90
33645;DHT22;19986;48.190;16.366;2023-12-04T03:42:18;0.10;99.90
33645;DHT22;19986;48.190;16.366;2023-12-04T03:44:44;0.10;99.90
33645;DHT22;19986;48.190;16.366;2023-12-04T03:47:10;0.10;99.90
33645;DHT22;19986;48.190;16.366;2023-12-04T03:49:37;0.00;99.90
33645;DHT22;19986;48.190;16.366;2023-12-04T03:52:03;-0.10;99.90
33645;DHT22;19986;48.190;16.366;2023-12-04T03:54:29;-0.10;99.90
33645;DHT22;19986;48.190;16.366;2023-12-04T03:56:55;-0.20;99.90
33645;DHT22;19986;48.190;16.366;2023-12-04T03:59:21;-0.20;99.90
33645;DHT22;19986;48.190;16.366;2023-12-04T04:01:46;-0.30;99.90
33645;DHT22;19986;48.190;16.366;2023-12-04T04:04:12;-0.30;99.90
33645;DHT22;19986;48.190;16.366;2023-12-04T04:06:39;-0.40;99.90
33645;DHT22;19986;48.190;16.366;2023-12-04T04:09:05;-0.40;99.90
33645;DHT22;19986;48.190;16.366;2023-12-04T04:11:31;-0.40;99.90
33645;DHT22;19986;48.190;16.366;2023-12-04T04:13:57;-0.50;99.90
33645;DHT22;19986;48.190;16.366;2023-12-04T04:16:23;-0.50;99.90
33645;DHT22;19986;48.190;16.366;2023-12-04T04:18:49;-0.50;99.90
33645;DHT22;19986;48.190;16.366;2023-12-04T04:21:14;-0.50;99.90
33645;DHT22;19986;48.190;16.366;2023-12-04T04:23:40;-0.50;99.90
33645;DHT22;19986;48.190;16.366;2023-12-04T04:26:06;-0.40;99.90
33645;DHT22;19986;48.190;16.366;2023-12-04T04:28:32;-0.50;99.90
33645;DHT22;19986;48.190;16.366;2023-12-04T04:30:58;-0.50;99.90
33645;DHT22;19986;48.190;16.366;2023-12-04T04:33:25;-0.60;99.90
33645;DHT22;19986;48.190;16.366;2023-12-04T04:35:51;-0.60;99.90
33645;DHT22;19986;48.190;16.366;2023-12-04T04:38:16;-0.60;99.90
33645;DHT22;19986;48.190;16.366;2023-12-04T04:40:42;-0.70;99.90
33645;DHT22;19986;48.190;16.366;2023-12-04T04:43:10;-0.60;99.90
33645;DHT22;19986;48.190;16.366;2023-12-04T04:45:36;-0.60;99.90
33645;DHT22;19986;48.190;16.366;2023-12-04T04:48:02;-0.60;99.90
33645;DHT22;19986;48.190;16.366;2023-12-04T04:50:28;-0.60;99.90
33645;DHT22;19986;48.190;16.366;2023-12-04T04:52:55;-0.60;99.90
33645;DHT22;19986;48.190;16.366;2023-12-04T04:55:21;-0.60;99.90
33645;DHT22;19986;48.190;16.366;2023-12-04T04:57:47;-0.50;99.90
33645;DHT22;19986;48.190;16.366;2023-12-04T05:00:13;-0.60;99.90
33645;DHT22;19986;48.190;16.366;2023-12-04T05:02:39;-0.70;99.90
33645;DHT22;19986;48.190;16.366;2023-12-04T05:05:06;-0.60;99.90
33645;DHT22;19986;48.190;16.366;2023-12-04T05:07:32;-0.60;99.90
33645;DHT22;19986;48.190;16.366;2023-12-04T05:09:59;-0.60;99.90
33645;DHT22;19986;48.190;16.366;2023-12-04T05:12:25;-0.60;99.90
33645;DHT22;19986;48.190;16.366;2023-12-04T05:14:51;-0.50;99.90
33645;DHT22;19986;48.190;16.366;2023-12-04T05:17:19;-0.50;99.90
33645;DHT22;19986;48.190;16.366;2023-12-04T05:19:45;-0.60;99.90
33645;DHT22;19986;48.190;16.366;2023-12-04T05:22:11;-0.60;99.90
33645;DHT22;19986;48.190;16.366;2023-12-04T05:24:37;-0.60;99.90
33645;DHT22;19986;48.190;16.366;2023-12-04T05:27:03;-0.60;99.90
33645;DHT22;19986;48.190;16.366;2023-12-04T05:29:29;-0.60;99.90
33645;DHT22;19986;48.190;16.366;2023-12-04T05:31:55;-0.60;99.90
33645;DHT22;19986;48.190;16.366;2023-12-04T05:34:23;-0.70;99.90
33645;DHT22;19986;48.190;16.366;2023-12-04T05:36:49;-0.60;99.90
33645;DHT22;19986;48.190;16.366;2023-12-04T05:39:15;-0.60;99.90
33645;DHT22;19986;48.190;16.366;2023-12-04T05:41:41;-0.60;99.90
33645;DHT22;19986;48.190;16.366;2023-12-04T05:44:07;-0.50;99.90
33645;DHT22;19986;48.190;16.366;2023-12-04T05:46:33;-0.50;99.90
33645;DHT22;19986;48.190;16.366;2023-12-04T05:49:03;-0.50;99.90
33645;DHT22;19986;48.190;16.366;2023-12-04T05:51:29;-0.60;99.90
33645;DHT22;19986;48.190;16.366;2023-12-04T05:53:55;-0.50;99.90
33645;DHT22;19986;48.190;16.366;2023-12-04T05:56:21;-0.50;99.90
33645;DHT22;19986;48.190;16.366;2023-12-04T05:58:47;-0.50;99.90
33645;DHT22;19986;48.190;16.366;2023-12-04T06:01:15;-0.60;99.90
33645;DHT22;19986;48.190;16.366;2023-12-04T06:03:41;-0.70;99.90
33645;DHT22;19986;48.190;16.366;2023-12-04T06:06:07;-0.70;99.90
33645;DHT22;19986;48.190;16.366;2023-12-04T06:08:33;-0.60;99.90
33645;DHT22;19986;48.190;16.366;2023-12-04T06:10:59;-0.70;99.90
33645;DHT22;19986;48.190;16.366;2023-12-04T06:13:25;-0.60;99.90
33645;DHT22;19986;48.190;16.366;2023-12-04T06:15:51;-0.60;99.90
33645;DHT22;19986;48.190;16.366;2023-12-04T06:18:17;-0.70;99.90
33645;DHT22;19986;48.190;16.366;2023-12-04T06:20:44;-0.60;99.90
33645;DHT22;19986;48.190;16.366;2023-12-04T06:23:10;-0.60;99.90
33645;DHT22;19986;48.190;16.366;2023-12-04T06:25:36;-0.70;99.90
33645;DHT22;19986;48.190;16.366;2023-12-04T06:28:07;-0.60;99.90
33645;DHT22;19986;48.190;16.366;2023-12-04T06:30:33;-0.70;99.90
33645;DHT22;19986;48.190;16.366;2023-12-04T06:32:59;-0.60;99.90
33645;DHT22;19986;48.190;16.366;2023-12-04T06:35:26;-0.70;99.90
33645;DHT22;19986;48.190;16.366;2023-12-04T06:37:55;-0.70;99.90
33645;DHT22;19986;48.190;16.366;2023-12-04T06:40:21;-0.70;99.90
33645;DHT22;19986;48.190;16.366;2023-12-04T06:42:48;-0.70;99.90
33645;DHT22;19986;48.190;16.366;2023-12-04T06:45:15;-0.60;99.90
33645;DHT22;19986;48.190;16.366;2023-12-04T06:47:43;-0.60;99.90
33645;DHT22;19986;48.190;16.366;2023-12-04T06:50:12;-0.60;99.90
33645;DHT22;19986;48.190;16.366;2023-12-04T06:52:38;-0.60;99.90
33645;DHT22;19986;48.190;16.366;2023-12-04T06:55:04;-0.60;99.90
33645;DHT22;19986;48.190;16.366;2023-12-04T06:57:30;-0.60;99.90
33645;DHT22;19986;48.190;16.366;2023-12-04T06:59:57;-0.50;99.90
33645;DHT22;19986;48.190;16.366;2023-12-04T07:02:24;-0.60;99.90
33645;DHT22;19986;48.190;16.366;2023-12-04T07:04:52;-0.60;99.90
33645;DHT22;19986;48.190;16.366;2023-12-04T07:07:18;-0.70;99.90
33645;DHT22;19986;48.190;16.366;2023-12-04T07:09:44;-0.70;99.90
33645;DHT22;19986;48.190;16.366;2023-12-04T07:12:10;-0.70;99.90
33645;DHT22;19986;48.190;16.366;2023-12-04T07:14:39;-0.70;99.90
33645;DHT22;19986;48.190;16.366;2023-12-04T07:17:05;-0.70;99.90
33645;DHT22;19986;48.190;16.366;2023-12-04T07:19:31;-0.60;99.90
33645;DHT22;19986;48.190;16.366;2023-12-04T07:21:57;-0.60;99.90
33645;DHT22;19986;48.190;16.366;2023-12-04T07:24:23;-0.70;99.90
33645;DHT22;19986;48.190;16.366;2023-12-04T07:26:49;-0.60;99.90
33645;DHT22;19986;48.190;16.366;2023-12-04T07:29:15;-0.70;99.90
33645;DHT22;19986;48.190;16.366;2023-12-04T07:31:42;-0.60;99.90
33645;DHT22;19986;48.190;16.366;2023-12-04T07:34:07;-0.60;99.90
33645;DHT22;19986;48.190;16.366;2023-12-04T07:36:33;-0.60;99.90
33645;DHT22;19986;48.190;16.366;2023-12-04T07:38:59;-0.60;99.90
33645;DHT22;19986;48.190;16.366;2023-12-04T07:41:25;-0.60;99.90
33645;DHT22;19986;48.190;16.366;2023-12-04T07:43:52;-0.70;99.90
33645;DHT22;19986;48.190;16.366;2023-12-04T07:46:20;-0.70;99.90
33645;DHT22;19986;48.190;16.366;2023-12-04T07:48:46;-0.60;99.90
33645;DHT22;19986;48.190;16.366;2023-12-04T07:51:12;-0.70;99.90
33645;DHT22;19986;48.190;16.366;2023-12-04T07:53:38;-0.60;99.90
33645;DHT22;19986;48.190;16.366;2023-12-04T07:56:04;-0.60;99.90
33645;DHT22;19986;48.190;16.366;2023-12-04T07:58:31;-0.70;99.90
33645;DHT22;19986;48.190;16.366;2023-12-04T08:00:57;-0.70;99.90
33645;DHT22;19986;48.190;16.366;2023-12-04T08:03:29;-0.80;99.90
33645;DHT22;19986;48.190;16.366;2023-12-04T08:05:56;-0.90;99.90
33645;DHT22;19986;48.190;16.366;2023-12-04T08:08:22;-1.00;99.90
33645;DHT22;19986;48.190;16.366;2023-12-04T08:10:48;-1.10;99.90
33645;DHT22;19986;48.190;16.366;2023-12-04T08:13:14;-1.10;99.90
33645;DHT22;19986;48.190;16.366;2023-12-04T08:15:40;-1.20;99.90
33645;DHT22;19986;48.190;16.366;2023-12-04T08:18:06;-1.20;99.90
33645;DHT22;19986;48.190;16.366;2023-12-04T08:20:32;-1.10;99.90
33645;DHT22;19986;48.190;16.366;2023-12-04T08:22:59;-1.10;99.90
33645;DHT22;19986;48.190;16.366;2023-12-04T08:25:25;-1.20;99.90
33645;DHT22;19986;48.190;16.366;2023-12-04T08:27:51;-1.20;99.90
33645;DHT22;19986;48.190;16.366;2023-12-04T08:30:17;-1.20;99.90
33645;DHT22;19986;48.190;16.366;2023-12-04T08:32:43;-1.20;99.90
33645;DHT22;19986;48.190;16.366;2023-12-04T08:35:09;-1.30;99.90
33645;DHT22;19986;48.190;16.366;2023-12-04T08:37:35;-1.30;99.90
33645;DHT22;19986;48.190;16.366;2023-12-04T08:40:02;-1.30;99.90
33645;DHT22;19986;48.190;16.366;2023-12-04T08:42:29;-1.20;99.90
33645;DHT22;19986;48.190;16.366;2023-12-04T08:44:55;-1.10;99.90
33645;DHT22;19986;48.190;16.366;2023-12-04T08:47:21;-1.00;99.90
33645;DHT22;19986;48.190;16.366;2023-12-04T08:49:47;-1.00;99.90
33645;DHT22;19986;48.190;16.366;2023-12-04T08:52:13;-1.00;99.90
33645;DHT22;19986;48.190;16.366;2023-12-04T08:54:40;-1.00;99.90
33645;DHT22;19986;48.190;16.366;2023-12-04T08:57:09;-1.00;99.90
33645;DHT22;19986;48.190;16.366;2023-12-04T08:59:35;-1.00;99.90
33645;DHT22;19986;48.190;16.366;2023-12-04T09:02:01;-0.90;99.90
33645;DHT22;19986;48.190;16.366;2023-12-04T09:04:33;-0.90;99.90
33645;DHT22;19986;48.190;16.366;2023-12-04T09:06:59;-0.80;99.90
33645;DHT22;19986;48.190;16.366;2023-12-04T09:09:25;-0.80;99.90
33645;DHT22;19986;48.190;16.366;2023-12-04T09:11:52;-0.80;99.90
33645;DHT22;19986;48.190;16.366;2023-12-04T09:14:18;-0.70;99.90
33645;DHT22;19986;48.190;16.366;2023-12-04T09:16:44;-0.50;99.90
33645;DHT22;19986;48.190;16.366;2023-12-04T09:19:10;-0.40;99.90
33645;DHT22;19986;48.190;16.366;2023-12-04T09:21:36;-0.30;99.90
33645;DHT22;19986;48.190;16.366;2023-12-04T09:24:02;-0.10;99.90
33645;DHT22;19986;48.190;16.366;2023-12-04T09:26:28;0.00;99.90
33645;DHT22;19986;48.190;16.366;2023-12-04T09:28:54;0.10;99.90
33645;DHT22;19986;48.190;16.366;2023-12-04T09:31:22;0.10;99.90
33645;DHT22;19986;48.190;16.366;2023-12-04T09:33:49;0.20;99.90
33645;DHT22;19986;48.190;16.366;2023-12-04T09:36:15;0.20;99.90
33645;DHT22;19986;48.190;16.366;2023-12-04T09:38:41;0.30;99.90
33645;DHT22;19986;48.190;16.366;2023-12-04T09:41:09;0.30;99.90
33645;DHT22;19986;48.190;16.366;2023-12-04T09:43:36;0.30;99.90
33645;DHT22;19986;48.190;16.366;2023-12-04T09:46:03;0.20;99.90
33645;DHT22;19986;48.190;16.366;2023-12-04T09:48:29;0.20;99.90
33645;DHT22;19986;48.190;16.366;2023-12-04T09:50:57;0.20;99.90
33645;DHT22;19986;48.190;16.366;2023-12-04T09:53:24;0.30;99.90
33645;DHT22;19986;48.190;16.366;2023-12-04T09:55:53;0.40;99.90
33645;DHT22;19986;48.190;16.366;2023-12-04T09:58:26;0.50;99.90
33645;DHT22;19986;48.190;16.366;2023-12-04T10:00:54;0.60;99.90
33645;DHT22;19986;48.190;16.366;2023-12-04T10:03:21;0.60;99.90
33645;DHT22;19986;48.190;16.366;2023-12-04T10:05:48;0.60;99.90
33645;DHT22;19986;48.190;16.366;2023-12-04T10:08:14;0.70;99.90
33645;DHT22;19986;48.190;16.366;2023-12-04T10:10:42;0.80;99.90
33645;DHT22;19986;48.190;16.366;2023-12-04T10:13:08;0.80;99.90
33645;DHT22;19986;48.190;16.366;2023-12-04T10:15:46;0.80;99.90
33645;DHT22;19986;48.190;16.366;2023-12-04T10:18:32;1.00;99.90
33645;DHT22;19986;48.190;16.366;2023-12-04T10:20:59;1.00;99.90
33645;DHT22;19986;48.190;16.366;2023-12-04T10:23:38;1.00;99.90
33645;DHT22;19986;48.190;16.366;2023-12-04T10:26:05;1.00;99.90
33645;DHT22;19986;48.190;16.366;2023-12-04T10:28:33;1.10;99.90
33645;DHT22;19986;48.190;16.366;2023-12-04T10:30:59;1.20;99.90
33645;DHT22;19986;48.190;16.366;2023-12-04T10:33:25;1.20;99.90
33645;DHT22;19986;48.190;16.366;2023-12-04T10:35:52;1.30;99.90
33645;DHT22;19986;48.190;16.366;2023-12-04T10:38:18;1.40;99.90
33645;DHT22;19986;48.190;16.366;2023-12-04T10:40:44;1.50;99.90
33645;DHT22;19986;48.190;16.366;2023-12-04T10:43:21;1.60;99.90
33645;DHT22;19986;48.190;16.366;2023-12-04T10:45:49;1.60;99.90
33645;DHT22;19986;48.190;16.366;2023-12-04T10:48:17;1.80;99.90
33645;DHT22;19986;48.190;16.366;2023-12-04T10:50:48;1.90;99.90
33645;DHT22;19986;48.190;16.366;2023-12-04T10:53:17;2.00;99.90
33645;DHT22;19986;48.190;16.366;2023-12-04T10:55:44;2.10;99.90
33645;DHT22;19986;48.190;16.366;2023-12-04T10:58:14;2.20;99.90
33645;DHT22;19986;48.190;16.366;2023-12-04T11:00:48;2.30;99.90
33645;DHT22;19986;48.190;16.366;2023-12-04T11:03:36;2.40;99.90
33645;DHT22;19986;48.190;16.366;2023-12-04T11:06:08;2.50;99.90
33645;DHT22;19986;48.190;16.366;2023-12-04T11:08:42;2.70;99.90
33645;DHT22;19986;48.190;16.366;2023-12-04T11:11:13;2.80;99.90
33645;DHT22;19986;48.190;16.366;2023-12-04T11:13:49;2.90;99.90
33645;DHT22;19986;48.190;16.366;2023-12-04T11:19:20;3.10;99.90
33645;DHT22;19986;48.190;16.366;2023-12-04T11:21:49;3.20;99.90
33645;DHT22;19986;48.190;16.366;2023-12-04T11:24:17;3.30;99.90
33645;DHT22;19986;48.190;16.366;2023-12-04T11:26:48;3.30;99.90
33645;DHT22;19986;48.190;16.366;2023-12-04T11:29:17;3.40;99.90
33645;DHT22;19986;48.190;16.366;2023-12-04T11:31:46;3.50;99.90
33645;DHT22;19986;48.190;16.366;2023-12-04T11:34:17;3.60;99.90
33645;DHT22;19986;48.190;16.366;2023-12-04T11:36:50;3.60;99.90
33645;DHT22;19986;48.190;16.366;2023-12-04T11:39:18;3.80;99.90
33645;DHT22;19986;48.190;16.366;2023-12-04T11:41:45;3.90;99.90
33645;DHT22;19986;48.190;16.366;2023-12-04T11:44:13;4.10;99.90
33645;DHT22;19986;48.190;16.366;2023-12-04T11:46:56;4.20;99.90
33645;DHT22;19986;48.190;16.366;2023-12-04T11:49:30;4.20;99.90
33645;DHT22;19986;48.190;16.366;2023-12-04T11:51:59;4.10;99.90
33645;DHT22;19986;48.190;16.366;2023-12-04T11:54:27;4.20;99.90
33645;DHT22;19986;48.190;16.366;2023-12-04T11:59:37;4.30;99.90
33645;DHT22;19986;48.190;16.366;2023-12-04T12:02:07;4.30;99.90
33645;DHT22;19986;48.190;16.366;2023-12-04T12:04:43;4.30;99.90
33645;DHT22;19986;48.190;16.366;2023-12-04T12:07:18;4.40;99.90
33645;DHT22;19986;48.190;16.366;2023-12-04T12:09:45;4.50;99.90
33645;DHT22;19986;48.190;16.366;2023-12-04T12:12:16;4.40;99.90
33645;DHT22;19986;48.190;16.366;2023-12-04T12:14:45;4.40;99.90
33645;DHT22;19986;48.190;16.366;2023-12-04T12:17:13;4.40;99.90
33645;DHT22;19986;48.190;16.366;2023-12-04T12:19:40;4.40;99.90
33645;DHT22;19986;48.190;16.366;2023-12-04T12:22:09;4.30;99.90
33645;DHT22;19986;48.190;16.366;2023-12-04T12:24:36;4.30;99.90
33645;DHT22;19986;48.190;16.366;2023-12-04T12:27:09;4.30;99.90
33645;DHT22;19986;48.190;16.366;2023-12-04T12:29:35;4.30;99.90
33645;DHT22;19986;48.190;16.366;2023-12-04T12:32:02;4.20;99.90
33645;DHT22;19986;48.190;16.366;2023-12-04T12:34:31;4.20;99.90
33645;DHT22;19986;48.190;16.366;2023-12-04T12:37:03;4.00;99.90
33645;DHT22;19986;48.190;16.366;2023-12-04T12:39:31;4.00;99.90
33645;DHT22;19986;48.190;16.366;2023-12-04T12:41:57;4.00;99.90
33645;DHT22;19986;48.190;16.366;2023-12-04T12:44:27;4.00;99.90
33645;DHT22;19986;48.190;16.366;2023-12-04T12:47:08;4.00;99.90
33645;DHT22;19986;48.190;16.366;2023-12-04T12:49:47;4.00;99.90
33645;DHT22;19986;48.190;16.366;2023-12-04T12:52:29;4.00;99.90
33645;DHT22;19986;48.190;16.366;2023-12-04T12:54:56;4.00;99.90
33645;DHT22;19986;48.190;16.366;2023-12-04T12:57:24;3.80;99.90
33645;DHT22;19986;48.190;16.366;2023-12-04T12:59:55;3.80;99.90
33645;DHT22;19986;48.190;16.366;2023-12-04T13:02:22;3.90;99.90
33645;DHT22;19986;48.190;16.366;2023-12-04T13:04:52;3.80;99.90
33645;DHT22;19986;48.190;16.366;2023-12-04T13:07:24;3.70;99.90
33645;DHT22;19986;48.190;16.366;2023-12-04T13:09:54;3.70;99.90
33645;DHT22;19986;48.190;16.366;2023-12-04T13:12:31;3.70;99.90
33645;DHT22;19986;48.190;16.366;2023-12-04T13:15:03;3.70;99.90
33645;DHT22;19986;48.190;16.366;2023-12-04T13:17:46;3.70;99.90
33645;DHT22;19986;48.190;16.366;2023-12-04T13:20:19;3.70;99.90
33645;DHT22;19986;48.190;16.366;2023-12-04T13:22:57;3.60;99.90
33645;DHT22;19986;48.190;16.366;2023-12-04T13:25:33;3.60;99.90
33645;DHT22;19986;48.190;16.366;2023-12-04T13:27:59;3.60;99.90
33645;DHT22;19986;48.190;16.366;2023-12-04T13:30:28;3.60;99.90
33645;DHT22;19986;48.190;16.366;2023-12-04T13:32:55;3.60;99.90
33645;DHT22;19986;48.190;16.366;2023-12-04T13:35:21;3.60;99.90
33645;DHT22;19986;48.190;16.366;2023-12-04T13:37:49;3.60;99.90
33645;DHT22;19986;48.190;16.366;2023-12-04T13:40:22;3.70;99.90
33645;DHT22;19986;48.190;16.366;2023-12-04T13:42:53;3.60;99.90
33645;DHT22;19986;48.190;16.366;2023-12-04T13:45:40;3.50;99.90
33645;DHT22;19986;48.190;16.366;2023-12-04T13:48:14;3.60;99.90
33645;DHT22;19986;48.190;16.366;2023-12-04T13:50:48;3.60;99.90
33645;DHT22;19986;48.190;16.366;2023-12-04T13:53:30;3.50;99.90
33645;DHT22;19986;48.190;16.366;2023-12-04T13:56:02;3.40;99.90
33645;DHT22;19986;48.190;16.366;2023-12-04T13:58:34;3.40;99.90
33645;DHT22;19986;48.190;16.366;2023-12-04T14:01:10;3.40;99.90
33645;DHT22;19986;48.190;16.366;2023-12-04T14:03:51;3.30;99.90
33645;DHT22;19986;48.190;16.366;2023-12-04T14:06:40;3.30;99.90
33645;DHT22;19986;48.190;16.366;2023-12-04T14:09:22;3.30;99.90
33645;DHT22;19986;48.190;16.366;2023-12-04T14:11:56;3.30;99.90
33645;DHT22;19986;48.190;16.366;2023-12-04T14:14:34;3.20;99.90
33645;DHT22;19986;48.190;16.366;2023-12-04T14:17:09;3.20;99.90
33645;DHT22;19986;48.190;16.366;2023-12-04T14:19:38;3.20;99.90
33645;DHT22;19986;48.190;16.366;2023-12-04T14:22:06;3.20;99.90
33645;DHT22;19986;48.190;16.366;2023-12-04T14:24:32;3.20;99.90
33645;DHT22;19986;48.190;16.366;2023-12-04T14:27:00;3.20;99.90
33645;DHT22;19986;48.190;16.366;2023-12-04T14:29:26;3.10;99.90
33645;DHT22;19986;48.190;16.366;2023-12-04T14:31:52;3.20;99.90
33645;DHT22;19986;48.190;16.366;2023-12-04T14:34:18;3.20;99.90
33645;DHT22;19986;48.190;16.366;2023-12-04T14:36:47;3.20;99.90
33645;DHT22;19986;48.190;16.366;2023-12-04T14:39:13;3.20;99.90
33645;DHT22;19986;48.190;16.366;2023-12-04T14:41:39;3.10;99.90
33645;DHT22;19986;48.190;16.366;2023-12-04T14:44:06;3.10;99.90
33645;DHT22;19986;48.190;16.366;2023-12-04T14:46:32;3.20;99.90
33645;DHT22;19986;48.190;16.366;2023-12-04T14:48:59;3.20;99.90
33645;DHT22;19986;48.190;16.366;2023-12-04T14:51:28;3.20;99.90
33645;DHT22;19986;48.190;16.366;2023-12-04T14:53:54;3.20;99.90
33645;DHT22;19986;48.190;16.366;2023-12-04T14:56:45;3.20;99.90
33645;DHT22;19986;48.190;16.366;2023-12-04T14:59:31;3.10;99.90
33645;DHT22;19986;48.190;16.366;2023-12-04T15:02:16;3.00;99.90
33645;DHT22;19986;48.190;16.366;2023-12-04T15:05:01;3.00;99.90
33645;DHT22;19986;48.190;16.366;2023-12-04T15:07:30;2.90;99.90
33645;DHT22;19986;48.190;16.366;2023-12-04T15:10:07;3.00;99.90
33645;DHT22;19986;48.190;16.366;2023-12-04T15:12:33;2.90;99.90
33645;DHT22;19986;48.190;16.366;2023-12-04T15:15:17;3.00;99.90
33645;DHT22;19986;48.190;16.366;2023-12-04T15:18:06;3.00;99.90
33645;DHT22;19986;48.190;16.366;2023-12-04T15:20:52;3.00;99.90
33645;DHT22;19986;48.190;16.366;2023-12-04T15:23:21;3.00;99.90
33645;DHT22;19986;48.190;16.366;2023-12-04T15:25:49;3.00;99.90
33645;DHT22;19986;48.190;16.366;2023-12-04T15:28:15;3.00;99.90
33645;DHT22;19986;48.190;16.366;2023-12-04T15:30:43;3.00;99.90
33645;DHT22;19986;48.190;16.366;2023-12-04T15:33:11;2.90;99.90
33645;DHT22;19986;48.190;16.366;2023-12-04T15:35:37;3.00;99.90
33645;DHT22;19986;48.190;16.366;2023-12-04T15:38:03;3.00;99.90